Time;durP1;ratioP1;P1;durP2;ratioP2;P2;SDS_P1;SDS_P2;PMS_P1;PMS_P2;Temp;Humidity;BMP_temperature;BMP_pressure;BME280_temperature;BME280_humidity;BME280_pressure;Samples;Min_cycle;Max_cycle;Signal;HPM_P1;HPM_P2
2023/02/02 08:39:23;;;;;;;9.10;2.55;;;;;;;9.47;43.51;100242.53;5065590;28;20152;-37
2023/02/02 08:41:49;;;;;;;6.00;2.17;;;;;;;9.14;43.66;100219.44;5069288;28;20033;-37
2023/02/02 08:44:15;;;;;;;18.58;8.70;;;;;;;9.10;43.99;100226.19;5069279;28;20428;-37
2023/02/02 08:46:41;;;;;;;5.90;2.88;;;;;;;9.24;44.26;100211.84;5069078;28;20029;-36
2023/02/02 08:49:10;;;;;;;7.47;2.25;;;;;;;9.10;44.20;100207.56;5069573;28;20039;-37
2023/02/02 08:51:35;;;;;;;7.55;3.33;;;;;;;9.47;44.90;100210.59;5069079;28;20028;-37
2023/02/02 08:54:01;;;;;;;6.30;3.00;;;;;;;9.63;43.37;100230.63;5069312;28;20028;-36
2023/02/02 08:56:26;;;;;;;8.02;3.30;;;;;;;9.78;43.37;100233.84;5069171;28;20032;-37
2023/02/02 08:58:54;;;;;;;8.57;2.75;;;;;;;9.85;42.30;100237.31;5069144;28;20025;-37
2023/02/02 09:01:25;;;;;;;5.85;2.30;;;;;;;10.01;43.30;100228.06;5068985;28;20032;-37
2023/02/02 09:03:59;;;;;;;7.55;3.17;;;;;;;10.50;42.54;100240.97;5068833;28;20189;-37
2023/02/02 09:06:31;;;;;;;4.45;2.10;;;;;;;10.17;40.80;100241.91;5069204;28;20039;-37
2023/02/02 09:08:56;;;;;;;5.07;2.60;;;;;;;10.02;42.03;100240.34;5069221;28;20107;-36
2023/02/02 09:11:22;;;;;;;6.53;2.47;;;;;;;10.23;42.62;100230.41;5068543;28;20150;-37
2023/02/02 09:13:51;;;;;;;3.33;1.98;;;;;;;10.29;41.45;100234.88;5068563;28;20113;-37
2023/02/02 09:16:19;;;;;;;6.78;2.90;;;;;;;10.48;41.88;100229.69;5050554;28;20126;-37
2023/02/02 09:18:45;;;;;;;6.13;3.00;;;;;;;10.55;41.81;100227.81;5068375;28;20087;-37
2023/02/02 09:21:12;;;;;;;6.43;2.30;;;;;;;10.69;40.73;100223.22;5068831;28;20630;-37
2023/02/02 09:23:40;;;;;;;3.22;1.90;;;;;;;10.64;39.53;100216.69;5068674;28;20580;-37
2023/02/02 09:26:20;;;;;;;6.30;2.20;;;;;;;10.51;40.16;100199.94;5068909;28;20090;-37
2023/02/02 09:28:48;;;;;;;3.42;2.10;;;;;;;10.59;40.69;100216.50;5068429;28;20108;-37
2023/02/02 09:31:13;;;;;;;;;;;;;;;10.40;40.16;100215.59;5068936;28;20097;-35
2023/02/02 09:33:40;;;;;;;4.07;2.20;;;;;;;10.63;40.11;100211.56;5050660;28;19916;-37
2023/02/02 09:36:11;;;;;;;3.28;1.90;;;;;;;10.86;39.66;100203.78;5068762;28;20124;-36
2023/02/02 09:38:38;;;;;;;5.75;2.20;;;;;;;10.93;39.99;100197.56;5068639;28;20044;-36
2023/02/02 09:41:35;;;;;;;3.20;1.70;;;;;;;10.90;39.44;100185.50;5068352;28;20506;-37
2023/02/02 09:44:32;;;;;;;7.22;2.65;;;;;;;10.88;39.39;100186.75;5047319;28;20047;-37
2023/02/02 09:47:35;;;;;;;4.95;2.67;;;;;;;10.90;38.36;100155.34;5068596;28;20131;-37
2023/02/02 09:50:09;;;;;;;4.95;2.38;;;;;;;11.04;38.37;100162.19;5068590;28;20028;-36
2023/02/02 09:52:54;;;;;;;3.35;1.80;;;;;;;11.12;38.72;100147.75;5068373;28;20540;-37
2023/02/02 09:55:29;;;;;;;3.90;1.75;;;;;;;11.44;38.32;100161.78;5066830;28;20131;-37
2023/02/02 09:58:05;;;;;;;5.18;2.00;;;;;;;11.75;37.69;100151.97;5088020;28;20035;-36
2023/02/02 10:00:41;;;;;;;6.85;2.10;;;;;;;11.94;38.38;100126.09;5088546;28;20149;-37
2023/02/02 10:03:24;;;;;;;4.78;1.88;;;;;;;11.83;37.61;100143.69;5088379;28;20027;-37
2023/02/02 10:05:56;;;;;;;3.10;1.52;;;;;;;11.76;37.03;100121.56;5088447;28;20054;-37
2023/02/02 10:08:48;;;;;;;3.72;1.70;;;;;;;11.88;36.61;100148.34;5069998;28;20408;-37
2023/02/02 10:11:40;;;;;;;5.10;1.98;;;;;;;11.39;36.96;100121.59;5083328;28;20112;-37
2023/02/02 10:14:17;;;;;;;4.45;2.00;;;;;;;11.94;37.56;100144.78;5088107;28;20016;-36
2023/02/02 10:16:42;;;;;;;4.03;2.22;;;;;;;11.79;36.37;100134.44;5088209;28;20032;-37
2023/02/02 10:19:13;;;;;;;4.45;2.58;;;;;;;11.84;36.56;100137.28;5088551;28;20020;-37
2023/02/02 10:21:47;;;;;;;4.68;2.20;;;;;;;11.80;36.81;100141.44;5088399;28;20031;-37
2023/02/02 10:24:19;;;;;;;3.53;1.75;;;;;;;11.61;37.35;100120.09;5088283;28;20024;-37
2023/02/02 10:26:49;;;;;;;4.28;2.05;;;;;;;12.19;36.33;100136.63;5088194;28;20032;-36
2023/02/02 10:29:23;;;;;;;6.25;2.17;;;;;;;12.60;36.35;100125.09;5071860;28;20032;-37
2023/02/02 10:31:51;;;;;;;7.57;2.60;;;;;;;12.98;36.45;100121.16;5091958;28;20461;-36
2023/02/02 10:34:42;;;;;;;4.90;1.98;;;;;;;12.98;36.77;100112.34;5073834;28;20035;-37
2023/02/02 10:37:17;;;;;;;5.05;2.30;;;;;;;13.58;35.57;100112.00;5091819;28;20052;-37
2023/02/02 10:39:51;;;;;;;4.50;2.13;;;;;;;13.50;35.63;100114.25;5091896;28;20055;-37
2023/02/02 10:42:36;;;;;;;5.70;2.10;;;;;;;12.70;35.40;100105.78;5092056;28;20089;-36
2023/02/02 10:45:19;;;;;;;4.25;1.95;;;;;;;12.72;35.47;100095.69;5091845;28;20512;-37
2023/02/02 10:47:45;;;;;;;4.70;2.30;;;;;;;12.81;35.27;100096.97;5091638;28;20049;-37
2023/02/02 10:50:17;;;;;;;5.57;2.20;;;;;;;13.33;35.88;100098.13;5091708;28;20027;-37
2023/02/02 10:52:47;;;;;;;6.95;2.15;;;;;;;13.76;35.29;100094.16;5091814;28;20063;-37
2023/02/02 10:55:13;;;;;;;5.10;2.10;;;;;;;13.81;33.74;100094.22;5091399;28;20131;-37
2023/02/02 10:58:03;;;;;;;6.13;1.90;;;;;;;13.94;33.47;100096.63;5091671;28;20208;-37
2023/02/02 11:00:45;;;;;;;2.92;1.48;;;;;;;13.32;33.60;100093.78;5073201;28;20407;-37
2023/02/02 11:03:13;;;;;;;4.57;1.58;;;;;;;13.16;33.91;100077.38;5073340;28;20039;-38
2023/02/02 11:08:31;;;;;;;4.93;1.90;;;;;;;13.68;32.29;100067.72;5091705;28;19923;-37
2023/02/02 11:11:07;;;;;;;2.65;1.45;;;;;;;13.71;32.42;100061.88;5091368;28;20459;-37
2023/02/02 11:13:40;;;;;;;2.55;1.60;;;;;;;14.34;33.06;100055.47;5091171;28;20866;-37
2023/02/02 11:16:15;;;;;;;3.95;1.70;;;;;;;14.32;32.43;100059.44;5091760;28;20032;-37
2023/02/02 11:18:42;;;;;;;2.83;1.50;;;;;;;14.05;33.21;100055.53;5091364;28;20498;-37
2023/02/02 11:21:36;;;;;;;4.68;1.80;;;;;;;14.28;33.05;100056.44;5072686;28;20028;-37
2023/02/02 11:24:06;;;;;;;2.90;1.40;;;;;;;14.30;31.73;100043.59;5091059;28;20525;-37
2023/02/02 11:26:55;;;;;;;2.03;1.27;;;;;;;14.42;32.45;100033.59;5091318;28;20035;-37
2023/02/02 11:29:30;;;;;;;3.47;1.40;;;;;;;13.94;31.52;100013.53;5090746;28;20032;-37
2023/02/02 11:31:56;;;;;;;3.58;1.20;;;;;;;13.48;31.90;100026.06;5090996;28;20028;-37
2023/02/02 11:34:24;;;;;;;3.28;1.52;;;;;;;14.22;32.58;100015.31;5090891;28;20031;-37
2023/02/02 11:37:31;;;;;;;7.80;2.67;;;;;;;14.15;32.40;100000.44;5090745;28;20520;-40
2023/02/02 11:40:19;;;;;;;5.05;1.98;;;;;;;13.64;33.13;100013.78;5090234;28;20044;-37
2023/02/02 11:42:48;;;;;;;3.95;1.52;;;;;;;13.38;32.93;100009.81;5090475;28;20091;-36
2023/02/02 11:45:17;;;;;;;3.20;1.50;;;;;;;12.93;33.13;99994.44;5090318;28;20035;-37
2023/02/02 11:47:43;;;;;;;3.45;2.15;;;;;;;13.09;33.60;99985.66;5090649;28;20020;-36
2023/02/02 11:50:19;;;;;;;3.70;1.88;;;;;;;12.78;33.76;99952.13;5090279;28;20023;-40
2023/02/02 11:52:45;;;;;;;3.72;1.40;;;;;;;13.62;32.37;99983.75;5090770;28;20027;-37
2023/02/02 11:55:19;;;;;;;2.38;1.75;;;;;;;13.86;32.50;99973.72;5072459;28;20024;-37
2023/02/02 11:58:19;;;;;;;3.90;1.73;;;;;;;14.44;31.63;99966.28;5090575;28;20035;-37
2023/02/02 12:00:49;;;;;;;3.83;1.92;;;;;;;14.21;31.78;99975.34;5090226;28;20024;-35
2023/02/02 12:03:25;;;;;;;4.43;1.70;;;;;;;14.67;31.18;99976.03;5090286;28;20028;-36
2023/02/02 12:05:51;;;;;;;2.90;1.55;;;;;;;15.66;30.80;99963.44;5090391;28;20031;-37
2023/02/02 12:08:16;;;;;;;3.55;1.80;;;;;;;15.85;31.09;99945.91;5090343;28;20024;-36
2023/02/02 12:11:20;;;;;;;3.03;1.48;;;;;;;15.55;29.98;99967.91;5071982;28;20028;-37
2023/02/02 12:13:45;;;;;;;3.28;1.60;;;;;;;15.06;30.71;99970.63;5083183;28;20032;-36
2023/02/02 12:16:28;;;;;;;2.13;1.50;;;;;;;15.04;30.24;99951.25;5090133;28;20032;-37
2023/02/02 12:19:38;;;;;;;3.03;1.67;;;;;;;14.55;31.47;99959.19;5090105;28;20020;-37
2023/02/02 12:22:25;;;;;;;5.20;1.83;;;;;;;14.23;30.13;99952.56;5047373;28;20043;-37
2023/02/02 12:25:17;;;;;;;3.60;1.65;;;;;;;13.97;30.83;99932.59;5090282;28;20044;-37
2023/02/02 12:28:14;;;;;;;3.78;2.00;;;;;;;13.85;31.01;99923.81;5089795;28;20032;-37
2023/02/02 12:31:17;;;;;;;4.53;1.48;;;;;;;13.91;30.61;99922.84;5090139;28;20166;-37
2023/02/02 12:34:13;;;;;;;4.15;1.65;;;;;;;14.62;29.49;99919.59;5017464;28;20033;-38
2023/02/02 12:37:12;;;;;;;2.83;1.50;;;;;;;15.14;30.50;99935.25;5089347;28;20421;-37
2023/02/02 12:40:02;;;;;;;3.22;1.58;;;;;;;14.56;30.15;99944.75;5089295;28;20048;-37
2023/02/02 12:42:42;;;;;;;4.00;1.70;;;;;;;14.31;30.42;99942.50;5089211;28;20040;-37
2023/02/02 12:45:55;;;;;;;3.38;2.00;;;;;;;13.91;31.33;99946.16;5089682;28;20169;-38
2023/02/02 12:48:59;;;;;;;3.95;1.83;;;;;;;13.81;31.52;99917.31;5067514;28;20515;-37
2023/02/02 12:51:42;;;;;;;4.00;1.85;;;;;;;13.71;31.63;99943.94;5088879;28;20535;-37
2023/02/02 12:54:20;;;;;;;3.80;1.98;;;;;;;13.72;31.83;99942.91;5089365;28;20568;-37
2023/02/02 12:56:50;;;;;;;2.63;1.50;;;;;;;13.64;31.80;99936.88;5089614;28;20078;-37
2023/02/02 12:59:16;;;;;;;4.22;1.50;;;;;;;13.36;32.49;99931.56;5089262;28;20774;-37
2023/02/02 13:02:00;;;;;;;3.92;1.25;;;;;;;13.38;32.18;99945.53;5089381;28;20158;-36
2023/02/02 13:04:34;;;;;;;3.22;1.50;;;;;;;13.15;32.68;99941.88;5089096;28;20396;-36
2023/02/02 13:07:11;;;;;;;3.75;1.50;;;;;;;13.71;32.18;99938.59;5089318;28;20089;-37
2023/02/02 13:09:57;;;;;;;2.78;1.70;;;;;;;15.10;29.86;99917.19;5089053;28;20043;-37
2023/02/02 13:12:24;;;;;;;3.75;1.83;;;;;;;15.32;29.44;99912.56;5089219;28;20563;-37
2023/02/02 13:15:07;;;;;;;3.33;1.58;;;;;;;16.09;28.90;99924.00;5070885;28;20032;-37
2023/02/02 13:17:59;;;;;;;3.67;1.65;;;;;;;16.97;28.21;99901.03;5088709;28;20978;-37
2023/02/02 13:20:24;;;;;;;4.10;1.80;;;;;;;17.62;27.10;99920.28;5088445;28;20568;-37
2023/02/02 13:22:55;;;;;;;4.32;2.10;;;;;;;17.14;27.55;99904.34;5088814;28;20053;-37
2023/02/02 13:25:36;;;;;;;4.55;1.80;;;;;;;16.52;28.04;99921.31;5088695;28;20055;-37
2023/02/02 13:28:05;;;;;;;4.53;1.70;;;;;;;16.20;29.27;99897.97;5070610;28;20022;-37
2023/02/02 13:30:35;;;;;;;3.38;2.00;;;;;;;17.88;27.92;99913.03;5088853;28;20024;-37
2023/02/02 13:33:08;;;;;;;6.55;1.80;;;;;;;18.92;26.05;99917.91;5088820;28;20523;-37
2023/02/02 13:36:01;;;;;;;3.42;1.90;;;;;;;19.70;24.63;99910.13;5088807;28;20024;-37
2023/02/02 13:38:29;;;;;;;3.72;1.90;;;;;;;19.17;24.69;99895.34;5088309;28;20032;-38
2023/02/02 13:41:04;;;;;;;4.60;2.20;;;;;;;18.25;26.70;99909.22;5088459;28;20107;-37
2023/02/02 13:43:39;;;;;;;3.90;1.80;;;;;;;17.39;27.48;99908.16;5088665;28;20503;-37
2023/02/02 13:46:36;;;;;;;4.15;1.58;;;;;;;16.36;27.87;99897.00;5088606;28;20055;-37
2023/02/02 13:49:32;;;;;;;3.30;1.80;;;;;;;15.55;29.79;99887.28;5087494;28;20040;-38
2023/02/02 13:52:12;;;;;;;4.60;1.92;;;;;;;14.91;29.78;99881.81;5070349;28;20028;-37
2023/02/02 13:54:49;;;;;;;3.67;1.88;;;;;;;14.35;30.72;99896.13;5088411;28;20032;-37
2023/02/02 13:57:20;;;;;;;4.13;1.88;;;;;;;13.70;31.32;99883.38;5088196;28;20039;-37
2023/02/02 13:59:48;;;;;;;3.72;1.75;;;;;;;13.43;31.73;99879.47;5088387;28;20034;-37
2023/02/02 14:02:25;;;;;;;5.32;2.10;;;;;;;13.37;31.74;99875.09;5088776;28;20089;-37
2023/02/02 14:05:00;;;;;;;6.75;2.38;;;;;;;12.97;33.09;99862.56;5091317;28;20055;-37
2023/02/02 14:07:36;;;;;;;5.82;2.30;;;;;;;12.59;33.51;99847.94;5091958;28;20528;-37
2023/02/02 14:10:03;;;;;;;4.38;2.30;;;;;;;12.51;34.37;99858.19;5074473;28;20117;-37
2023/02/02 14:12:33;;;;;;;4.85;2.20;;;;;;;12.57;34.59;99868.75;5092481;28;20487;-37
2023/02/02 14:14:59;;;;;;;5.05;2.33;;;;;;;12.58;35.40;99837.47;5092340;28;20039;-37
2023/02/02 14:17:24;;;;;;;5.40;2.55;;;;;;;12.62;34.19;99851.97;5092334;28;20028;-37
2023/02/02 14:19:58;;;;;;;5.72;2.63;;;;;;;12.52;35.00;99846.44;5092773;28;20416;-37
2023/02/02 14:22:44;;;;;;;9.95;3.95;;;;;;;12.43;35.55;99862.84;5092230;28;20036;-37
2023/02/02 14:25:28;;;;;;;7.45;3.78;;;;;;;12.35;37.06;99860.53;5092360;28;20495;-36
2023/02/02 14:27:57;;;;;;;6.03;2.70;;;;;;;11.96;36.12;99859.44;5092316;28;20104;-37
2023/02/02 14:30:32;;;;;;;1.85;1.38;;;;;;;11.69;33.59;99854.50;5092161;28;20012;-37
2023/02/02 14:33:22;;;;;;;4.75;1.88;;;;;;;11.84;34.65;99878.09;5092130;28;20024;-37
2023/02/02 14:35:47;;;;;;;5.22;2.55;;;;;;;11.65;37.78;99902.22;5092207;28;20117;-37
2023/02/02 14:38:25;;;;;;;7.80;2.15;;;;;;;11.12;40.57;99919.03;5092015;28;20082;-36
2023/02/02 14:43:43;;;;;;;4.30;2.10;;;;;;;10.93;41.51;99904.09;5091850;28;20036;-37
2023/02/02 14:44:05;;;;;;;5.15;2.08;;;;;;;10.86;42.66;99910.31;5091976;28;20419;-37
2023/02/02 14:46:37;;;;;;;3.17;1.92;;;;;;;10.75;40.28;99892.41;5091639;28;20455;-37
2023/02/02 14:49:02;;;;;;;3.05;1.45;;;;;;;11.01;37.81;99907.28;5091772;28;20032;-36
2023/02/02 14:51:30;;;;;;;3.80;1.48;;;;;;;11.00;37.41;99897.63;5091265;28;20038;-36
2023/02/02 14:53:58;;;;;;;;;;;;;;;11.06;38.12;99911.94;5091996;28;20032;-37
2023/02/02 14:56:44;;;;;;;5.38;2.67;;;;;;;11.13;37.91;99914.50;5091484;28;19947;-37
2023/02/02 14:59:21;;;;;;;4.45;2.20;;;;;;;11.10;38.46;99915.78;5091591;28;20136;-37
2023/02/02 15:02:10;;;;;;;3.70;1.90;;;;;;;10.81;39.89;99906.72;5091566;28;20106;-36
2023/02/02 15:04:35;;;;;;;4.60;2.08;;;;;;;10.70;41.33;99910.94;5091730;28;20110;-37
2023/02/02 15:07:27;;;;;;;5.13;3.10;;;;;;;10.69;42.03;99924.50;5091470;28;20110;-36
2023/02/02 15:09:55;;;;;;;5.35;2.58;;;;;;;10.68;41.77;99913.00;5086223;28;20032;-36
2023/02/02 15:12:43;;;;;;;5.45;1.85;;;;;;;10.57;42.27;99921.75;5091129;28;20420;-37
2023/02/02 15:15:22;;;;;;;4.05;2.10;;;;;;;10.44;44.14;99902.22;5072321;28;20415;-36
2023/02/02 15:18:21;;;;;;;4.78;2.40;;;;;;;10.38;44.59;99900.44;5091424;28;20028;-37
2023/02/02 15:20:52;;;;;;;6.85;2.60;;;;;;;10.53;44.65;99910.72;5087167;28;20412;-37
2023/02/02 15:23:35;;;;;;;35.55;14.68;;;;;;;10.50;44.73;99923.66;5091296;28;20144;-36
2023/02/02 15:26:26;;;;;;;6.40;3.58;;;;;;;10.18;44.66;99923.78;5091310;28;20028;-37
2023/02/02 15:29:00;;;;;;;9.48;4.40;;;;;;;9.92;45.87;99920.28;5091170;28;20108;-36
2023/02/02 15:31:32;;;;;;;6.65;3.30;;;;;;;9.85;46.79;99914.22;5091014;28;20028;-37
2023/02/02 15:34:03;;;;;;;6.78;3.28;;;;;;;9.77;47.03;99927.81;5090803;28;20036;-37
2023/02/02 15:36:36;;;;;;;9.50;4.22;;;;;;;9.64;47.43;99910.91;5090612;28;20572;-37
2023/02/02 15:39:10;;;;;;;10.88;6.00;;;;;;;9.40;48.72;99906.38;5090777;28;20060;-37
2023/02/02 15:41:41;;;;;;;8.55;5.45;;;;;;;9.42;49.40;99944.22;5090218;28;20119;-37
2023/02/02 15:44:25;;;;;;;9.43;5.78;;;;;;;9.39;49.27;99920.69;5072409;28;20035;-37
2023/02/02 15:46:52;;;;;;;12.80;5.55;;;;;;;9.57;48.96;99955.38;5090679;28;20020;-37
2023/02/02 15:49:18;;;;;;;9.30;5.32;;;;;;;9.57;48.70;99971.34;5090268;28;20028;-36
2023/02/02 15:51:49;;;;;;;14.20;7.95;;;;;;;9.42;48.59;99949.56;5090305;28;20028;-37
2023/02/02 15:54:23;;;;;;;16.50;8.30;;;;;;;9.59;48.71;99979.13;5089976;28;20054;-37
2023/02/02 15:56:50;;;;;;;32.83;17.15;;;;;;;9.64;48.60;99987.28;5072460;28;20028;-36
2023/02/02 15:59:23;;;;;;;12.13;6.72;;;;;;;9.75;48.81;99978.63;5089806;28;20039;-37
2023/02/02 16:02:03;;;;;;;14.88;7.88;;;;;;;9.82;48.07;100006.00;5090215;28;20028;-37
2023/02/02 16:04:38;;;;;;;20.85;10.00;;;;;;;9.85;47.76;100000.25;5089867;28;20027;-37
2023/02/02 16:07:09;;;;;;;26.42;12.63;;;;;;;9.94;48.13;100019.47;5090089;28;20369;-38
2023/02/02 16:09:36;;;;;;;20.00;13.45;;;;;;;9.90;48.91;100034.25;5071766;28;20028;-37
2023/02/02 16:12:06;;;;;;;244.40;139.93;;;;;;;9.85;50.19;100042.06;5071772;28;20043;-37
2023/02/02 16:14:37;;;;;;;22.10;15.63;;;;;;;9.99;49.81;100040.97;5089754;28;20028;-37
2023/02/02 16:17:11;;;;;;;6.30;3.15;;;;;;;9.93;49.28;100049.81;5089982;28;20027;-37
2023/02/02 16:19:41;;;;;;;6.78;3.40;;;;;;;9.97;49.85;100045.69;5089777;28;20173;-37
2023/02/02 16:22:10;;;;;;;21.45;18.98;;;;;;;9.71;50.68;100045.84;5090041;28;20107;-37
2023/02/02 16:24:45;;;;;;;35.90;27.67;;;;;;;9.69;50.87;100056.69;5089815;28;20125;-37
2023/02/02 16:27:16;;;;;;;13.50;9.20;;;;;;;9.78;50.65;100083.91;5089751;28;20032;-37
2023/02/02 16:29:43;;;;;;;10.10;6.00;;;;;;;9.70;51.49;100090.28;5089451;28;20088;-37
2023/02/02 16:32:34;;;;;;;8.20;3.92;;;;;;;9.51;52.89;100115.97;5089761;28;20050;-36
2023/02/02 16:35:03;;;;;;;7.18;4.63;;;;;;;9.30;55.67;100137.53;5089566;28;20063;-37
2023/02/02 16:37:31;;;;;;;11.55;8.75;;;;;;;9.15;58.88;100154.53;5089705;28;20032;-37
2023/02/02 16:40:17;;;;;;;6.28;3.65;;;;;;;9.07;60.48;100164.59;5070761;28;20044;-39
2023/02/02 16:42:42;;;;;;;3.15;1.58;;;;;;;8.75;59.23;100173.19;5089920;28;20042;-37
2023/02/02 16:45:32;;;;;;;4.03;1.58;;;;;;;8.12;63.82;100191.25;5089718;28;20024;-36
2023/02/02 16:48:30;;;;;;;1.88;1.30;;;;;;;8.00;64.41;100159.94;5089636;28;20384;-37
2023/02/02 16:51:04;;;;;;;;;;;;;;;7.90;64.82;100211.78;5090137;28;20054;-37
2023/02/02 16:53:30;;;;;;;2.13;1.25;;;;;;;7.62;67.96;100221.47;5089013;28;20375;-37
2023/02/02 16:55:58;;;;;;;3.28;1.40;;;;;;;7.24;68.23;100210.41;5071487;28;20016;-37
2023/02/02 16:58:26;;;;;;;3.72;1.50;;;;;;;7.04;71.11;100205.75;5089280;28;20063;-37
2023/02/02 17:01:02;;;;;;;1.90;0.80;;;;;;;6.78;71.76;100206.38;5089406;28;20032;-37
2023/02/02 17:03:32;;;;;;;2.67;1.02;;;;;;;6.69;71.55;100207.50;5089355;28;20020;-37
2023/02/02 17:05:58;;;;;;;3.60;1.25;;;;;;;6.59;72.13;100167.25;5089477;28;20032;-37
2023/02/02 17:08:36;;;;;;;3.22;1.20;;;;;;;6.61;72.97;100199.69;5089042;28;20028;-37
2023/02/02 17:11:09;;;;;;;2.45;1.27;;;;;;;6.73;72.62;100208.75;5089177;28;20063;-37
2023/02/02 17:13:37;;;;;;;4.25;1.60;;;;;;;6.66;72.84;100213.19;5089043;28;20472;-37
2023/02/02 17:16:05;;;;;;;1.58;0.90;;;;;;;6.70;71.22;100222.41;5089002;28;20031;-36
2023/02/02 17:18:31;;;;;;;1.77;1.13;;;;;;;6.47;72.61;100198.72;5088952;28;20112;-37
2023/02/02 17:21:02;;;;;;;1.73;0.90;;;;;;;6.85;71.04;100238.25;5088968;28;20115;-36
2023/02/02 17:23:30;;;;;;;1.05;0.60;;;;;;;6.55;71.37;100226.94;5088473;28;20590;-37
2023/02/02 17:25:56;;;;;;;3.10;1.37;;;;;;;6.52;72.35;100244.03;5071067;28;20111;-37
2023/02/02 17:28:23;;;;;;;7.47;3.30;;;;;;;6.55;72.77;100230.41;5088872;28;20345;-37
2023/02/02 17:30:58;;;;;;;3.35;1.33;;;;;;;6.29;74.80;100204.44;5088963;28;20031;-37
2023/02/02 17:33:27;;;;;;;5.55;2.47;;;;;;;6.26;75.03;100218.06;5088741;28;20035;-37
2023/02/02 17:35:53;;;;;;;4.80;2.15;;;;;;;6.17;75.58;100219.19;5088632;28;20036;-36
2023/02/02 17:38:20;;;;;;;4.75;2.45;;;;;;;6.03;77.54;100208.44;5087910;28;20558;-37
2023/02/02 17:40:46;;;;;;;3.67;1.92;;;;;;;6.00;78.31;100224.69;5070627;28;20107;-37
2023/02/02 17:43:12;;;;;;;4.72;2.47;;;;;;;5.77;79.64;100213.38;5088893;28;20028;-38
2023/02/02 17:45:37;;;;;;;3.70;1.92;;;;;;;5.78;79.75;100242.31;5088643;28;20055;-36
2023/02/02 17:48:07;;;;;;;8.45;3.30;;;;;;;5.72;80.55;100234.25;5088675;28;20032;-37
2023/02/02 17:50:33;;;;;;;6.65;2.70;;;;;;;5.73;79.97;100244.69;5088428;28;20481;-37
2023/02/02 17:52:58;;;;;;;14.93;6.07;;;;;;;5.77;79.76;100226.63;5088544;28;20031;-37
2023/02/02 17:55:24;;;;;;;6.30;2.95;;;;;;;5.81;77.94;100209.38;5088134;28;20024;-37
2023/02/02 17:57:51;;;;;;;7.70;3.30;;;;;;;5.69;77.72;100189.66;5088419;28;20693;-37
2023/02/02 18:00:19;;;;;;;5.97;2.75;;;;;;;5.69;77.48;100216.94;5088676;28;20113;-37
2023/02/02 18:02:47;;;;;;;7.88;3.40;;;;;;;5.68;78.39;100214.47;5088492;28;20085;-37
2023/02/02 18:05:14;;;;;;;3.15;1.90;;;;;;;5.78;76.52;100184.09;5088326;28;20558;-38
2023/02/02 18:07:42;;;;;;;2.88;1.38;;;;;;;5.82;76.50;100221.56;5088372;28;20544;-37
2023/02/02 18:10:10;;;;;;;3.83;1.55;;;;;;;5.58;79.33;100226.16;5088495;28;20028;-37
2023/02/02 18:12:36;;;;;;;6.03;2.83;;;;;;;5.62;79.34;100222.16;5088271;28;20020;-37
2023/02/02 18:15:04;;;;;;;2.88;1.35;;;;;;;5.34;81.64;100218.47;5088382;28;20024;-37
2023/02/02 18:17:29;;;;;;;3.33;1.67;;;;;;;5.38;84.12;100235.63;5088229;28;20028;-37
2023/02/02 18:19:55;;;;;;;4.25;2.20;;;;;;;5.29;85.74;100231.41;5088192;28;20437;-37
2023/02/02 18:22:21;;;;;;;5.03;2.67;;;;;;;5.30;86.02;100211.91;5088443;28;20051;-37
2023/02/02 18:24:47;;;;;;;8.82;2.97;;;;;;;5.49;85.84;100243.09;5088446;28;20035;-37
2023/02/02 18:27:14;;;;;;;6.00;2.67;;;;;;;5.40;85.89;100233.63;5088354;28;20109;-37
2023/02/02 18:29:42;;;;;;;6.20;3.40;;;;;;;5.40;86.25;100233.63;5088254;28;20035;-37
2023/02/02 18:32:08;;;;;;;5.28;2.25;;;;;;;5.50;86.13;100238.66;5088385;28;20047;-37
2023/02/02 18:34:34;;;;;;;6.07;2.30;;;;;;;5.51;85.53;100235.81;5087819;28;20034;-37
2023/02/02 18:37:01;;;;;;;4.65;2.38;;;;;;;5.62;85.53;100259.19;5088377;28;20059;-37
2023/02/02 18:39:26;;;;;;;2.55;1.60;;;;;;;5.36;86.23;100229.69;5088107;28;20055;-37
2023/02/02 18:41:54;;;;;;;4.65;1.80;;;;;;;5.09;87.19;100231.09;5088121;28;20053;-38
2023/02/02 18:44:21;;;;;;;5.03;2.30;;;;;;;5.21;88.71;100241.09;5088401;28;20043;-37
2023/02/02 18:46:46;;;;;;;5.82;2.67;;;;;;;5.23;88.04;100244.38;5087855;28;20515;-37
2023/02/02 18:49:12;;;;;;;8.85;3.70;;;;;;;5.28;88.60;100232.44;5088014;28;20051;-37
2023/02/02 18:51:37;;;;;;;10.15;4.40;;;;;;;5.06;87.81;100211.13;5090755;28;20089;-37
2023/02/02 18:54:03;;;;;;;8.35;3.85;;;;;;;5.24;87.19;100230.13;5091883;28;20028;-37
2023/02/02 18:56:29;;;;;;;8.10;3.58;;;;;;;5.03;88.58;100219.44;5091680;28;20025;-37
2023/02/02 18:58:56;;;;;;;8.23;3.65;;;;;;;5.17;87.28;100229.22;5091838;28;20093;-37
2023/02/02 19:01:24;;;;;;;5.88;2.97;;;;;;;5.21;87.10;100233.16;5091190;28;20157;-37
2023/02/02 19:04:03;;;;;;;;;;;;;;;;;;;;;
2023/02/02 19:09:15;;;;;;;11.18;5.30;;;;;;;5.60;83.47;100257.75;5091487;28;20031;-37
2023/02/02 19:11:44;;;;;;;11.88;5.55;;;;;;;5.52;82.03;100236.66;5091383;28;20027;-37
2023/02/02 19:14:27;;;;;;;8.18;4.30;;;;;;;5.74;81.76;100279.88;5091143;28;20563;-37
2023/02/02 19:16:57;;;;;;;8.70;4.60;;;;;;;5.54;81.21;100277.78;5091476;28;20031;-37
2023/02/02 19:19:26;;;;;;;7.95;4.28;;;;;;;5.34;81.37;100264.25;5091171;28;20487;-37
2023/02/02 19:21:58;;;;;;;9.60;4.15;;;;;;;5.57;80.31;100288.00;5091377;28;20035;-37
2023/02/02 19:24:25;;;;;;;10.20;4.10;;;;;;;5.42;80.32;100279.22;5091443;28;20032;-37
2023/02/02 19:26:53;;;;;;;6.13;3.00;;;;;;;5.45;80.22;100270.91;5091339;28;20028;-37
2023/02/02 19:29:21;;;;;;;4.55;2.00;;;;;;;5.55;78.24;100286.53;5091154;28;20020;-37
2023/02/02 19:32:07;;;;;;;;;;;;;;;5.62;76.98;100295.41;5091600;28;20067;-37
2023/02/02 19:34:38;;;;;;;4.30;1.83;;;;;;;5.39;77.07;100261.06;5091320;28;19981;-36
2023/02/02 19:37:18;;;;;;;4.53;2.00;;;;;;;5.53;76.57;100262.91;5091150;28;20082;-37
2023/02/02 19:39:45;;;;;;;15.20;6.30;;;;;;;5.56;76.24;100273.13;5090906;28;20697;-37
2023/02/02 19:42:11;;;;;;;11.43;4.90;;;;;;;5.31;77.49;100287.59;5090874;28;20606;-37
2023/02/02 19:44:39;;;;;;;3.42;1.83;;;;;;;5.15;77.83;100273.53;5072883;28;20041;-37
2023/02/02 19:47:22;;;;;;;3.30;1.75;;;;;;;5.27;76.80;100286.31;5090650;28;20078;-37
2023/02/02 19:49:47;;;;;;;2.65;1.45;;;;;;;5.23;76.32;100291.97;5091305;28;20031;-36
2023/02/02 19:52:24;;;;;;;2.50;1.63;;;;;;;5.27;75.85;100276.56;5090495;28;20024;-37
2023/02/02 19:54:51;;;;;;;3.25;1.80;;;;;;;5.30;75.06;100276.19;5071466;28;20028;-36
2023/02/02 19:57:31;;;;;;;2.30;1.38;;;;;;;5.09;74.25;100253.09;5089591;28;20598;-37
2023/02/02 19:59:59;;;;;;;3.03;1.55;;;;;;;5.20;74.43;100263.22;5089046;28;20051;-36
2023/02/02 20:02:46;;;;;;;3.58;1.80;;;;;;;5.15;74.38;100267.38;5089143;28;20036;-37
2023/02/02 20:05:20;;;;;;;4.07;2.05;;;;;;;5.30;74.24;100267.44;5090183;28;20064;-37
2023/02/02 20:07:47;;;;;;;3.55;1.80;;;;;;;5.18;73.18;100251.19;5090230;28;20114;-37
2023/02/02 20:10:22;;;;;;;4.03;2.10;;;;;;;5.18;73.50;100267.06;5089902;28;20093;-37
2023/02/02 20:12:49;;;;;;;4.22;2.13;;;;;;;5.25;73.55;100262.69;5090053;28;20543;-37
2023/02/02 20:15:27;;;;;;;4.32;1.90;;;;;;;5.16;73.37;100276.97;5088857;28;20483;-36
2023/02/02 20:17:55;;;;;;;4.55;2.40;;;;;;;5.13;74.13;100286.09;5090067;28;20042;-37
2023/02/02 20:20:42;;;;;;;3.10;1.80;;;;;;;5.17;72.60;100279.44;5088833;28;20027;-37
2023/02/02 20:23:28;;;;;;;3.80;1.80;;;;;;;5.14;72.58;100285.09;5087780;28;20109;-37
2023/02/02 20:25:54;;;;;;;3.40;1.95;;;;;;;5.05;73.13;100254.44;5089884;28;20130;-37
2023/02/02 20:28:32;;;;;;;5.72;2.55;;;;;;;5.26;72.00;100276.75;5090425;28;20487;-37
2023/02/02 20:31:01;;;;;;;3.40;1.90;;;;;;;5.14;72.24;100293.00;5089746;28;20479;-37
2023/02/02 20:33:31;;;;;;;7.20;3.40;;;;;;;5.08;72.20;100269.94;5089241;28;20446;-37
2023/02/02 20:36:01;;;;;;;6.90;3.45;;;;;;;5.20;72.04;100279.06;5089465;28;20027;-37
2023/02/02 20:38:37;;;;;;;13.02;5.20;;;;;;;5.21;71.60;100278.09;5088966;28;20043;-38
2023/02/02 20:41:04;;;;;;;10.52;4.05;;;;;;;4.93;71.65;100258.50;5081888;28;20519;-37
2023/02/02 20:43:30;;;;;;;6.43;2.35;;;;;;;4.94;71.12;100270.72;5088400;28;20032;-37
2023/02/02 20:45:55;;;;;;;11.05;5.90;;;;;;;5.04;70.91;100287.16;5089075;28;20035;-37
2023/02/02 20:48:23;;;;;;;5.90;2.50;;;;;;;4.79;71.22;100286.50;5089198;28;20020;-36
2023/02/02 20:50:48;;;;;;;8.60;3.83;;;;;;;4.75;71.39;100267.53;5089605;28;20028;-37